Time;durP1;ratioP1;P1;durP2;ratioP2;P2;SDS_P1;SDS_P2;PMS_P1;PMS_P2;Temp;Humidity;BMP_temperature;BMP_pressure;BME280_temperature;BME280_humidity;BME280_pressure;Samples;Min_cycle;Max_cycle;Signal;HPM_P1;HPM_P2
2023/04/03 00:00:00;;;;;;;2.8;2.7;;;;;;;3.5;100.0;102750;;;;
2023/04/03 00:01:01;;;;;;;2.8;2.7;;;;;;;3.5;100.0;102750;;;;
2023/04/03 00:02:00;;;;;;;2.8;2.7;;;;;;;3.7;100.0;102750;;;;
2023/04/03 00:03:00;;;;;;;2.8;2.7;;;;;;;3.7;100.0;102750;;;;
2023/04/03 00:04:00;;;;;;;2.8;2.7;;;;;;;3.5;100.0;102750;;;;
2023/04/03 00:05:00;;;;;;;2.8;2.7;;;;;;;3.5;100.0;102750;;;;
2023/04/03 00:06:01;;;;;;;2.8;2.7;;;;;;;3.5;100.0;102750;;;;
2023/04/03 00:07:00;;;;;;;2.8;2.7;;;;;;;3.5;100.0;102750;;;;
2023/04/03 00:08:01;;;;;;;2.8;2.7;;;;;;;3.4;100.0;102750;;;;
2023/04/03 00:09:00;;;;;;;2.8;2.7;;;;;;;3.4;100.0;102750;;;;
2023/04/03 00:10:00;;;;;;;2.8;2.7;;;;;;;3.4;100.0;102760;;;;
2023/04/03 00:11:01;;;;;;;2.8;2.7;;;;;;;3.4;100.0;102760;;;;
2023/04/03 00:12:00;;;;;;;2.8;2.7;;;;;;;3.5;100.0;102760;;;;
2023/04/03 00:13:00;;;;;;;2.8;2.7;;;;;;;3.5;100.0;102760;;;;
2023/04/03 00:14:00;;;;;;;2.8;2.7;;;;;;;3.5;100.0;102760;;;;
2023/04/03 00:15:00;;;;;;;2.8;2.7;;;;;;;3.5;100.0;102760;;;;
2023/04/03 00:16:01;;;;;;;2.8;2.7;;;;;;;3.5;100.0;102760;;;;
2023/04/03 00:17:00;;;;;;;2.8;2.7;;;;;;;3.5;100.0;102760;;;;
2023/04/03 00:18:01;;;;;;;2.8;2.7;;;;;;;3.5;100.0;102770;;;;
2023/04/03 00:19:00;;;;;;;2.5;2.5;;;;;;;3.5;100.0;102770;;;;
2023/04/03 00:20:00;;;;;;;2.5;2.5;;;;;;;3.5;100.0;102770;;;;
2023/04/03 00:21:01;;;;;;;2.5;2.5;;;;;;;3.5;100.0;102770;;;;
2023/04/03 00:22:00;;;;;;;2.5;2.5;;;;;;;3.3;100.0;102770;;;;
2023/04/03 00:23:01;;;;;;;2.5;2.5;;;;;;;3.3;100.0;102770;;;;
2023/04/03 00:24:00;;;;;;;2.5;2.5;;;;;;;3.2;100.0;102760;;;;
2023/04/03 00:25:00;;;;;;;2.5;2.5;;;;;;;3.2;100.0;102760;;;;
2023/04/03 00:26:01;;;;;;;2.5;2.5;;;;;;;3.2;100.0;102770;;;;
2023/04/03 00:27:00;;;;;;;2.5;2.5;;;;;;;3.2;100.0;102770;;;;
2023/04/03 00:28:01;;;;;;;2.5;2.5;;;;;;;3.2;100.0;102770;;;;
2023/04/03 00:29:00;;;;;;;2.5;2.5;;;;;;;3.2;100.0;102770;;;;
2023/04/03 00:30:00;;;;;;;2.5;2.5;;;;;;;3.2;100.0;102770;;;;
2023/04/03 00:31:00;;;;;;;2.5;2.5;;;;;;;3.2;100.0;102770;;;;
2023/04/03 00:32:00;;;;;;;2.5;2.5;;;;;;;3.1;100.0;102770;;;;
2023/04/03 00:33:01;;;;;;;2.5;2.5;;;;;;;3.1;100.0;102770;;;;
2023/04/03 00:34:00;;;;;;;2.5;2.5;;;;;;;3.2;100.0;102770;;;;
2023/04/03 00:35:00;;;;;;;2.5;2.5;;;;;;;3.2;100.0;102770;;;;
2023/04/03 00:36:05;;;;;;;2.5;2.5;;;;;;;3.3;100.0;102770;;;;
2023/04/03 00:37:00;;;;;;;2.5;2.5;;;;;;;3.3;100.0;102770;;;;
2023/04/03 00:38:00;;;;;;;2.5;2.5;;;;;;;3.3;100.0;102770;;;;
2023/04/03 00:39:00;;;;;;;2.6;2.5;;;;;;;3.3;100.0;102770;;;;
2023/04/03 00:40:00;;;;;;;2.6;2.5;;;;;;;3.2;100.0;102770;;;;
2023/04/03 00:41:00;;;;;;;2.6;2.5;;;;;;;3.2;100.0;102770;;;;
2023/04/03 00:42:00;;;;;;;2.6;2.5;;;;;;;3.0;100.0;102770;;;;
2023/04/03 00:43:00;;;;;;;2.6;2.5;;;;;;;3.0;100.0;102770;;;;
2023/04/03 00:44:00;;;;;;;2.6;2.5;;;;;;;3.0;100.0;102780;;;;
2023/04/03 00:45:00;;;;;;;2.6;2.5;;;;;;;3.0;100.0;102780;;;;
2023/04/03 00:46:00;;;;;;;2.6;2.5;;;;;;;3.0;100.0;102780;;;;
2023/04/03 00:47:01;;;;;;;2.6;2.5;;;;;;;3.0;100.0;102780;;;;
2023/04/03 00:48:02;;;;;;;2.6;2.5;;;;;;;3.0;100.0;102780;;;;
2023/04/03 00:49:00;;;;;;;2.6;2.5;;;;;;;3.0;100.0;102780;;;;
2023/04/03 00:50:01;;;;;;;2.6;2.5;;;;;;;3.0;100.0;102780;;;;
2023/04/03 00:51:02;;;;;;;2.6;2.5;;;;;;;3.0;100.0;102780;;;;
2023/04/03 00:52:01;;;;;;;2.6;2.5;;;;;;;2.9;100.0;102790;;;;
2023/04/03 00:53:01;;;;;;;2.6;2.5;;;;;;;2.9;100.0;102790;;;;
2023/04/03 00:54:02;;;;;;;2.6;2.5;;;;;;;2.8;100.0;102790;;;;
2023/04/03 00:55:02;;;;;;;2.6;2.5;;;;;;;2.8;100.0;102790;;;;
2023/04/03 00:56:01;;;;;;;2.6;2.5;;;;;;;2.9;100.0;102780;;;;
2023/04/03 00:57:00;;;;;;;2.6;2.5;;;;;;;2.9;100.0;102780;;;;
2023/04/03 00:58:01;;;;;;;2.6;2.5;;;;;;;2.7;100.0;102790;;;;
2023/04/03 00:59:00;;;;;;;2.4;2.4;;;;;;;2.7;100.0;102790;;;;
2023/04/03 01:00:05;;;;;;;2.4;2.4;;;;;;;2.7;100.0;102790;;;;
2023/04/03 01:01:03;;;;;;;2.4;2.4;;;;;;;2.7;100.0;102790;;;;
2023/04/03 01:02:01;;;;;;;2.4;2.4;;;;;;;2.7;100.0;102790;;;;
2023/04/03 01:03:01;;;;;;;2.4;2.4;;;;;;;2.7;100.0;102790;;;;
2023/04/03 01:04:02;;;;;;;2.4;2.4;;;;;;;2.6;100.0;102790;;;;
2023/04/03 01:05:00;;;;;;;2.4;2.4;;;;;;;2.6;100.0;102790;;;;
2023/04/03 01:06:00;;;;;;;2.4;2.4;;;;;;;2.6;100.0;102790;;;;
2023/04/03 01:07:04;;;;;;;2.4;2.4;;;;;;;2.6;100.0;102790;;;;
2023/04/03 01:08:01;;;;;;;2.4;2.4;;;;;;;2.6;100.0;102790;;;;
2023/04/03 01:09:01;;;;;;;2.4;2.4;;;;;;;2.6;100.0;102790;;;;
2023/04/03 01:10:02;;;;;;;2.4;2.4;;;;;;;2.7;100.0;102800;;;;
2023/04/03 01:11:00;;;;;;;2.4;2.4;;;;;;;2.7;100.0;102800;;;;
2023/04/03 01:12:12;;;;;;;2.4;2.4;;;;;;;2.7;100.0;102790;;;;
2023/04/03 01:13:01;;;;;;;2.4;2.4;;;;;;;2.7;100.0;102790;;;;
2023/04/03 01:14:01;;;;;;;2.4;2.4;;;;;;;2.6;100.0;102800;;;;
2023/04/03 01:15:04;;;;;;;2.4;2.4;;;;;;;2.6;100.0;102800;;;;
2023/04/03 01:16:03;;;;;;;2.4;2.4;;;;;;;2.6;100.0;102800;;;;
2023/04/03 01:17:00;;;;;;;2.4;2.4;;;;;;;2.6;100.0;102800;;;;
2023/04/03 01:18:00;;;;;;;2.4;2.4;;;;;;;2.6;100.0;102790;;;;
2023/04/03 01:19:01;;;;;;;2.7;2.6;;;;;;;2.6;100.0;102790;;;;
2023/04/03 01:20:08;;;;;;;2.7;2.6;;;;;;;2.7;100.0;102800;;;;
2023/04/03 01:21:00;;;;;;;2.7;2.6;;;;;;;2.7;100.0;102800;;;;
2023/04/03 01:22:10;;;;;;;2.7;2.6;;;;;;;2.6;100.0;102800;;;;
2023/04/03 01:23:10;;;;;;;2.7;2.6;;;;;;;2.6;100.0;102800;;;;
2023/04/03 01:24:10;;;;;;;2.7;2.6;;;;;;;2.6;100.0;102800;;;;
2023/04/03 01:25:01;;;;;;;2.7;2.6;;;;;;;2.6;100.0;102800;;;;
2023/04/03 01:26:00;;;;;;;2.7;2.6;;;;;;;2.7;100.0;102800;;;;
2023/04/03 01:27:02;;;;;;;2.7;2.6;;;;;;;2.7;100.0;102800;;;;
2023/04/03 01:28:00;;;;;;;2.7;2.6;;;;;;;2.5;100.0;102800;;;;
2023/04/03 01:29:00;;;;;;;2.7;2.6;;;;;;;2.5;100.0;102800;;;;
2023/04/03 01:30:00;;;;;;;2.7;2.6;;;;;;;2.5;100.0;102800;;;;
2023/04/03 01:31:10;;;;;;;2.7;2.6;;;;;;;2.5;100.0;102800;;;;
2023/04/03 01:32:01;;;;;;;2.7;2.6;;;;;;;2.5;100.0;102800;;;;
2023/04/03 01:33:00;;;;;;;2.7;2.6;;;;;;;2.5;100.0;102800;;;;
2023/04/03 01:34:01;;;;;;;2.7;2.6;;;;;;;2.5;100.0;102800;;;;
2023/04/03 01:35:00;;;;;;;2.7;2.6;;;;;;;2.5;100.0;102800;;;;
2023/04/03 01:36:01;;;;;;;2.7;2.6;;;;;;;2.5;100.0;102790;;;;
2023/04/03 01:37:00;;;;;;;2.7;2.6;;;;;;;2.5;100.0;102790;;;;
2023/04/03 01:38:00;;;;;;;2.7;2.6;;;;;;;2.4;100.0;102800;;;;
2023/04/03 01:39:00;;;;;;;3.0;2.9;;;;;;;2.4;100.0;102800;;;;
2023/04/03 01:40:00;;;;;;;3.0;2.9;;;;;;;2.5;100.0;102800;;;;
2023/04/03 01:41:01;;;;;;;3.0;2.9;;;;;;;2.5;100.0;102800;;;;
2023/04/03 01:42:00;;;;;;;3.0;2.9;;;;;;;2.4;100.0;102800;;;;
2023/04/03 01:43:00;;;;;;;3.0;2.9;;;;;;;2.4;100.0;102800;;;;
2023/04/03 01:44:00;;;;;;;3.0;2.9;;;;;;;2.5;100.0;102800;;;;
2023/04/03 01:45:00;;;;;;;3.0;2.9;;;;;;;2.5;100.0;102800;;;;
2023/04/03 01:46:00;;;;;;;3.0;2.9;;;;;;;2.4;100.0;102800;;;;
2023/04/03 01:47:00;;;;;;;3.0;2.9;;;;;;;2.4;100.0;102800;;;;
2023/04/03 01:48:00;;;;;;;3.0;2.9;;;;;;;2.4;100.0;102800;;;;
2023/04/03 01:49:01;;;;;;;3.0;2.9;;;;;;;2.4;100.0;102800;;;;
2023/04/03 01:50:00;;;;;;;3.0;2.9;;;;;;;2.4;100.0;102790;;;;
2023/04/03 01:51:00;;;;;;;3.0;2.9;;;;;;;2.4;100.0;102790;;;;
2023/04/03 01:52:00;;;;;;;3.0;2.9;;;;;;;2.5;100.0;102790;;;;
2023/04/03 01:53:00;;;;;;;3.0;2.9;;;;;;;2.5;100.0;102790;;;;
2023/04/03 01:54:00;;;;;;;3.0;2.9;;;;;;;2.4;100.0;102790;;;;
2023/04/03 01:55:00;;;;;;;3.0;2.9;;;;;;;2.4;100.0;102790;;;;
2023/04/03 01:56:00;;;;;;;3.0;2.9;;;;;;;2.4;100.0;102800;;;;
2023/04/03 01:57:00;;;;;;;3.0;2.9;;;;;;;2.4;100.0;102800;;;;
2023/04/03 01:58:00;;;;;;;2.8;2.7;;;;;;;2.3;100.0;102800;;;;
2023/04/03 01:59:00;;;;;;;2.8;2.7;;;;;;;2.3;100.0;102800;;;;
2023/04/03 02:00:00;;;;;;;2.8;2.7;;;;;;;2.4;100.0;102800;;;;
2023/04/03 02:01:01;;;;;;;2.8;2.7;;;;;;;2.4;100.0;102800;;;;
2023/04/03 02:02:00;;;;;;;2.8;2.7;;;;;;;2.5;100.0;102800;;;;
2023/04/03 02:03:00;;;;;;;2.8;2.7;;;;;;;2.5;100.0;102800;;;;
2023/04/03 02:04:00;;;;;;;2.8;2.7;;;;;;;2.4;100.0;102800;;;;
2023/04/03 02:05:00;;;;;;;2.8;2.7;;;;;;;2.4;100.0;102800;;;;
2023/04/03 02:06:00;;;;;;;2.8;2.7;;;;;;;2.5;100.0;102800;;;;
2023/04/03 02:07:00;;;;;;;2.8;2.7;;;;;;;2.5;100.0;102800;;;;
2023/04/03 02:08:00;;;;;;;2.8;2.7;;;;;;;2.5;100.0;102800;;;;
2023/04/03 02:09:00;;;;;;;2.8;2.7;;;;;;;2.5;100.0;102800;;;;
2023/04/03 02:10:00;;;;;;;2.8;2.7;;;;;;;2.5;100.0;102800;;;;
2023/04/03 02:11:00;;;;;;;2.8;2.7;;;;;;;2.5;100.0;102800;;;;
2023/04/03 02:12:02;;;;;;;2.8;2.7;;;;;;;2.5;100.0;102810;;;;
2023/04/03 02:13:00;;;;;;;2.8;2.7;;;;;;;2.5;100.0;102810;;;;
2023/04/03 02:14:00;;;;;;;2.8;2.7;;;;;;;2.4;100.0;102810;;;;
2023/04/03 02:15:00;;;;;;;2.8;2.7;;;;;;;2.4;100.0;102810;;;;
2023/04/03 02:16:05;;;;;;;2.8;2.7;;;;;;;2.5;100.0;102810;;;;
2023/04/03 02:17:04;;;;;;;2.8;2.7;;;;;;;2.5;100.0;102810;;;;
2023/04/03 02:18:00;;;;;;;2.8;2.7;;;;;;;2.5;100.0;102810;;;;
2023/04/03 02:19:00;;;;;;;2.8;2.7;;;;;;;2.5;100.0;102810;;;;
2023/04/03 02:20:00;;;;;;;2.8;2.7;;;;;;;2.4;100.0;102810;;;;
2023/04/03 02:21:00;;;;;;;2.8;2.7;;;;;;;2.4;100.0;102810;;;;
2023/04/03 02:22:01;;;;;;;2.8;2.7;;;;;;;2.4;100.0;102810;;;;
2023/04/03 02:23:01;;;;;;;2.8;2.7;;;;;;;2.4;100.0;102810;;;;
2023/04/03 02:24:00;;;;;;;2.8;2.7;;;;;;;2.4;100.0;102820;;;;
2023/04/03 02:25:00;;;;;;;2.8;2.7;;;;;;;2.4;100.0;102820;;;;
2023/04/03 02:26:05;;;;;;;2.8;2.7;;;;;;;2.4;100.0;102810;;;;
2023/04/03 02:27:00;;;;;;;2.8;2.7;;;;;;;2.4;100.0;102810;;;;
2023/04/03 02:28:00;;;;;;;2.8;2.7;;;;;;;2.3;100.0;102810;;;;
2023/04/03 02:29:00;;;;;;;2.8;2.7;;;;;;;2.3;100.0;102810;;;;
2023/04/03 02:30:00;;;;;;;2.8;2.7;;;;;;;2.3;100.0;102820;;;;
2023/04/03 02:31:00;;;;;;;2.8;2.7;;;;;;;2.3;100.0;102820;;;;
2023/04/03 02:32:00;;;;;;;2.8;2.7;;;;;;;2.4;100.0;102820;;;;
2023/04/03 02:33:00;;;;;;;2.8;2.7;;;;;;;2.4;100.0;102820;;;;
2023/04/03 02:34:00;;;;;;;2.8;2.7;;;;;;;2.3;100.0;102820;;;;
2023/04/03 02:35:00;;;;;;;2.8;2.7;;;;;;;2.3;100.0;102820;;;;
2023/04/03 02:36:00;;;;;;;2.8;2.7;;;;;;;2.3;100.0;102820;;;;
2023/04/03 02:37:00;;;;;;;2.8;2.7;;;;;;;2.3;100.0;102820;;;;
2023/04/03 02:38:00;;;;;;;2.7;2.6;;;;;;;2.4;100.0;102820;;;;
2023/04/03 02:39:00;;;;;;;2.7;2.6;;;;;;;2.4;100.0;102820;;;;
2023/04/03 02:40:00;;;;;;;2.7;2.6;;;;;;;2.3;100.0;102820;;;;
2023/04/03 02:41:01;;;;;;;2.7;2.6;;;;;;;2.3;100.0;102820;;;;
2023/04/03 02:42:00;;;;;;;2.7;2.6;;;;;;;2.3;100.0;102820;;;;
2023/04/03 02:43:00;;;;;;;2.7;2.6;;;;;;;2.3;100.0;102820;;;;
2023/04/03 02:44:01;;;;;;;2.7;2.6;;;;;;;2.2;100.0;102820;;;;
2023/04/03 02:45:00;;;;;;;2.7;2.6;;;;;;;2.2;100.0;102820;;;;
2023/04/03 02:46:00;;;;;;;2.7;2.6;;;;;;;2.3;100.0;102820;;;;
2023/04/03 02:47:00;;;;;;;2.7;2.6;;;;;;;2.3;100.0;102820;;;;
2023/04/03 02:48:00;;;;;;;2.7;2.6;;;;;;;2.2;100.0;102820;;;;
2023/04/03 02:49:00;;;;;;;2.7;2.6;;;;;;;2.2;100.0;102820;;;;
2023/04/03 02:50:00;;;;;;;2.7;2.6;;;;;;;2.2;100.0;102820;;;;
2023/04/03 02:51:00;;;;;;;2.7;2.6;;;;;;;2.2;100.0;102820;;;;
2023/04/03 02:52:00;;;;;;;2.7;2.6;;;;;;;2.2;100.0;102820;;;;
2023/04/03 02:53:01;;;;;;;2.7;2.6;;;;;;;2.2;100.0;102820;;;;
2023/04/03 02:54:00;;;;;;;2.7;2.6;;;;;;;2.2;100.0;102820;;;;
2023/04/03 02:55:00;;;;;;;2.7;2.6;;;;;;;2.2;100.0;102820;;;;
2023/04/03 02:56:00;;;;;;;2.7;2.6;;;;;;;2.2;100.0;102820;;;;
2023/04/03 02:57:01;;;;;;;2.7;2.6;;;;;;;2.2;100.0;102820;;;;
2023/04/03 02:58:00;;;;;;;3.3;3.2;;;;;;;2.2;100.0;102820;;;;
2023/04/03 02:59:00;;;;;;;3.3;3.2;;;;;;;2.2;100.0;102820;;;;
2023/04/03 03:00:00;;;;;;;3.3;3.2;;;;;;;2.2;100.0;102820;;;;
2023/04/03 03:01:00;;;;;;;3.3;3.2;;;;;;;2.2;100.0;102820;;;;
2023/04/03 03:02:00;;;;;;;3.3;3.2;;;;;;;2.2;100.0;102820;;;;
2023/04/03 03:03:00;;;;;;;3.3;3.2;;;;;;;2.2;100.0;102820;;;;
2023/04/03 03:04:00;;;;;;;3.3;3.2;;;;;;;2.2;100.0;102820;;;;
2023/04/03 03:05:00;;;;;;;3.3;3.2;;;;;;;2.2;100.0;102820;;;;
2023/04/03 03:06:01;;;;;;;3.3;3.2;;;;;;;2.2;100.0;102820;;;;
2023/04/03 03:07:01;;;;;;;3.3;3.2;;;;;;;2.2;100.0;102820;;;;
2023/04/03 03:08:00;;;;;;;3.3;3.2;;;;;;;2.2;100.0;102820;;;;
2023/04/03 03:09:00;;;;;;;3.3;3.2;;;;;;;2.2;100.0;102820;;;;
2023/04/03 03:10:00;;;;;;;3.3;3.2;;;;;;;2.2;100.0;102820;;;;
2023/04/03 03:11:00;;;;;;;3.3;3.2;;;;;;;2.2;100.0;102820;;;;
2023/04/03 03:12:00;;;;;;;3.3;3.2;;;;;;;2.2;100.0;102820;;;;
2023/04/03 03:13:01;;;;;;;3.3;3.2;;;;;;;2.2;100.0;102820;;;;
2023/04/03 03:14:00;;;;;;;3.3;3.2;;;;;;;2.2;100.0;102820;;;;
2023/04/03 03:15:00;;;;;;;3.3;3.2;;;;;;;2.2;100.0;102820;;;;
2023/04/03 03:16:01;;;;;;;3.3;3.2;;;;;;;2.1;100.0;102820;;;;
2023/04/03 03:17:00;;;;;;;3.3;3.2;;;;;;;2.1;100.0;102820;;;;
2023/04/03 03:18:00;;;;;;;2.8;2.7;;;;;;;2.2;100.0;102820;;;;
2023/04/03 03:19:00;;;;;;;2.8;2.7;;;;;;;2.2;100.0;102820;;;;
2023/04/03 03:20:00;;;;;;;2.8;2.7;;;;;;;2.2;100.0;102820;;;;
2023/04/03 03:21:01;;;;;;;2.8;2.7;;;;;;;2.2;100.0;102820;;;;
2023/04/03 03:22:00;;;;;;;2.8;2.7;;;;;;;2.2;100.0;102820;;;;
2023/04/03 03:23:00;;;;;;;2.8;2.7;;;;;;;2.2;100.0;102820;;;;
2023/04/03 03:24:00;;;;;;;2.8;2.7;;;;;;;2.1;100.0;102820;;;;
2023/04/03 03:25:01;;;;;;;2.8;2.7;;;;;;;2.1;100.0;102820;;;;
2023/04/03 03:26:03;;;;;;;2.8;2.7;;;;;;;2.0;100.0;102830;;;;
2023/04/03 03:27:00;;;;;;;2.8;2.7;;;;;;;2.0;100.0;102830;;;;
2023/04/03 03:28:00;;;;;;;2.8;2.7;;;;;;;2.1;100.0;102830;;;;
2023/04/03 03:29:00;;;;;;;2.8;2.7;;;;;;;2.1;100.0;102830;;;;
2023/04/03 03:30:00;;;;;;;2.8;2.7;;;;;;;2.1;100.0;102830;;;;
2023/04/03 03:31:00;;;;;;;2.8;2.7;;;;;;;2.1;100.0;102830;;;;
2023/04/03 03:32:00;;;;;;;2.8;2.7;;;;;;;2.0;100.0;102830;;;;
2023/04/03 03:33:01;;;;;;;2.8;2.7;;;;;;;2.0;100.0;102830;;;;
2023/04/03 03:34:00;;;;;;;2.8;2.7;;;;;;;2.0;100.0;102830;;;;
2023/04/03 03:35:00;;;;;;;2.8;2.7;;;;;;;2.0;100.0;102830;;;;
2023/04/03 03:36:00;;;;;;;2.8;2.7;;;;;;;2.0;100.0;102830;;;;
2023/04/03 03:37:00;;;;;;;2.8;2.7;;;;;;;2.0;100.0;102830;;;;
2023/04/03 03:38:00;;;;;;;2.7;2.6;;;;;;;1.9;100.0;102830;;;;
2023/04/03 03:39:00;;;;;;;2.7;2.6;;;;;;;1.9;100.0;102830;;;;
2023/04/03 03:40:00;;;;;;;2.7;2.6;;;;;;;1.9;100.0;102840;;;;
2023/04/03 03:41:01;;;;;;;2.7;2.6;;;;;;;1.9;100.0;102840;;;;
2023/04/03 03:42:00;;;;;;;2.7;2.6;;;;;;;1.9;100.0;102840;;;;
2023/04/03 03:43:00;;;;;;;2.7;2.6;;;;;;;1.9;100.0;102840;;;;
2023/04/03 03:44:00;;;;;;;2.7;2.6;;;;;;;1.9;100.0;102830;;;;
2023/04/03 03:45:00;;;;;;;2.7;2.6;;;;;;;1.9;100.0;102830;;;;
2023/04/03 03:46:00;;;;;;;2.7;2.6;;;;;;;1.9;100.0;102840;;;;
2023/04/03 03:47:00;;;;;;;2.7;2.6;;;;;;;1.9;100.0;102840;;;;
2023/04/03 03:48:01;;;;;;;2.7;2.6;;;;;;;1.8;100.0;102850;;;;
2023/04/03 03:49:00;;;;;;;2.7;2.6;;;;;;;1.8;100.0;102850;;;;
2023/04/03 03:50:00;;;;;;;2.7;2.6;;;;;;;1.8;100.0;102850;;;;
2023/04/03 03:51:00;;;;;;;2.7;2.6;;;;;;;1.8;100.0;102850;;;;
2023/04/03 03:52:00;;;;;;;2.7;2.6;;;;;;;1.7;100.0;102840;;;;
2023/04/03 03:53:00;;;;;;;2.7;2.6;;;;;;;1.7;100.0;102840;;;;
2023/04/03 03:54:00;;;;;;;2.7;2.6;;;;;;;1.7;100.0;102850;;;;
2023/04/03 03:55:00;;;;;;;2.7;2.6;;;;;;;1.7;100.0;102850;;;;
2023/04/03 03:56:00;;;;;;;2.7;2.6;;;;;;;1.7;100.0;102850;;;;
2023/04/03 03:57:00;;;;;;;2.7;2.6;;;;;;;1.7;100.0;102850;;;;
2023/04/03 03:58:01;;;;;;;3.0;2.9;;;;;;;1.7;100.0;102850;;;;
2023/04/03 03:59:00;;;;;;;3.0;2.9;;;;;;;1.7;100.0;102850;;;;
2023/04/03 04:00:00;;;;;;;3.0;2.9;;;;;;;1.7;100.0;102850;;;;
2023/04/03 04:01:01;;;;;;;3.0;2.9;;;;;;;1.7;100.0;102850;;;;
2023/04/03 04:02:00;;;;;;;3.0;2.9;;;;;;;1.7;100.0;102850;;;;
2023/04/03 04:03:00;;;;;;;3.0;2.9;;;;;;;1.7;100.0;102850;;;;
2023/04/03 04:04:00;;;;;;;3.0;2.9;;;;;;;1.7;100.0;102850;;;;
2023/04/03 04:05:00;;;;;;;3.0;2.9;;;;;;;1.7;100.0;102850;;;;
2023/04/03 04:06:00;;;;;;;3.0;2.9;;;;;;;1.6;100.0;102860;;;;
2023/04/03 04:07:00;;;;;;;3.0;2.9;;;;;;;1.6;100.0;102860;;;;
2023/04/03 04:08:00;;;;;;;3.0;2.9;;;;;;;1.5;100.0;102860;;;;
2023/04/03 04:09:00;;;;;;;3.0;2.9;;;;;;;1.5;100.0;102860;;;;
2023/04/03 04:10:00;;;;;;;3.0;2.9;;;;;;;1.5;100.0;102860;;;;
2023/04/03 04:11:00;;;;;;;3.0;2.9;;;;;;;1.5;100.0;102860;;;;
2023/04/03 04:12:00;;;;;;;3.0;2.9;;;;;;;1.5;100.0;102860;;;;
2023/04/03 04:13:00;;;;;;;3.0;2.9;;;;;;;1.5;100.0;102860;;;;
2023/04/03 04:14:00;;;;;;;3.0;2.9;;;;;;;1.5;100.0;102870;;;;
2023/04/03 04:15:00;;;;;;;3.0;2.9;;;;;;;1.5;100.0;102870;;;;
2023/04/03 04:16:01;;;;;;;3.0;2.9;;;;;;;1.6;100.0;102870;;;;
2023/04/03 04:17:02;;;;;;;3.0;2.9;;;;;;;1.6;100.0;102870;;;;
2023/04/03 04:18:00;;;;;;;2.9;2.8;;;;;;;1.6;100.0;102870;;;;
2023/04/03 04:19:00;;;;;;;2.9;2.8;;;;;;;1.6;100.0;102870;;;;
2023/04/03 04:20:01;;;;;;;2.9;2.8;;;;;;;1.5;100.0;102870;;;;
2023/04/03 04:21:00;;;;;;;2.9;2.8;;;;;;;1.5;100.0;102870;;;;
2023/04/03 04:22:00;;;;;;;2.9;2.8;;;;;;;1.5;100.0;102870;;;;
2023/04/03 04:23:00;;;;;;;2.9;2.8;;;;;;;1.5;100.0;102870;;;;
2023/04/03 04:24:00;;;;;;;2.9;2.8;;;;;;;1.4;100.0;102860;;;;
2023/04/03 04:25:00;;;;;;;2.9;2.8;;;;;;;1.4;100.0;102860;;;;
2023/04/03 04:26:00;;;;;;;2.9;2.8;;;;;;;1.5;100.0;102870;;;;
2023/04/03 04:27:00;;;;;;;2.9;2.8;;;;;;;1.5;100.0;102870;;;;
2023/04/03 04:28:00;;;;;;;2.9;2.8;;;;;;;1.5;100.0;102860;;;;
2023/04/03 04:29:00;;;;;;;2.9;2.8;;;;;;;1.5;100.0;102860;;;;
2023/04/03 04:30:00;;;;;;;2.9;2.8;;;;;;;1.5;100.0;102860;;;;
2023/04/03 04:31:00;;;;;;;2.9;2.8;;;;;;;1.5;100.0;102860;;;;
2023/04/03 04:32:00;;;;;;;2.9;2.8;;;;;;;1.4;100.0;102870;;;;
2023/04/03 04:33:01;;;;;;;2.9;2.8;;;;;;;1.4;100.0;102870;;;;
2023/04/03 04:34:00;;;;;;;2.9;2.8;;;;;;;1.4;100.0;102870;;;;
2023/04/03 04:35:00;;;;;;;2.9;2.8;;;;;;;1.4;100.0;102870;;;;
2023/04/03 04:36:00;;;;;;;2.9;2.8;;;;;;;1.4;100.0;102860;;;;
2023/04/03 04:37:00;;;;;;;2.9;2.8;;;;;;;1.4;100.0;102860;;;;
2023/04/03 04:38:01;;;;;;;3.3;3.2;;;;;;;1.3;100.0;102860;;;;
2023/04/03 04:39:00;;;;;;;3.3;3.2;;;;;;;1.3;100.0;102860;;;;
2023/04/03 04:40:00;;;;;;;3.3;3.2;;;;;;;1.3;100.0;102860;;;;
2023/04/03 04:41:00;;;;;;;3.3;3.2;;;;;;;1.3;100.0;102860;;;;
2023/04/03 04:42:00;;;;;;;3.3;3.2;;;;;;;1.3;100.0;102870;;;;
2023/04/03 04:43:00;;;;;;;3.3;3.2;;;;;;;1.3;100.0;102870;;;;
2023/04/03 04:44:00;;;;;;;3.3;3.2;;;;;;;1.3;100.0;102870;;;;
2023/04/03 04:45:00;;;;;;;3.3;3.2;;;;;;;1.3;100.0;102870;;;;
2023/04/03 04:46:01;;;;;;;3.3;3.2;;;;;;;1.3;100.0;102870;;;;
2023/04/03 04:47:00;;;;;;;3.3;3.2;;;;;;;1.3;100.0;102870;;;;
2023/04/03 04:48:00;;;;;;;3.3;3.2;;;;;;;1.4;100.0;102870;;;;
2023/04/03 04:49:00;;;;;;;3.3;3.2;;;;;;;1.4;100.0;102870;;;;
2023/04/03 04:50:00;;;;;;;3.3;3.2;;;;;;;1.3;100.0;102870;;;;
2023/04/03 04:51:01;;;;;;;3.3;3.2;;;;;;;1.3;100.0;102870;;;;
2023/04/03 04:52:00;;;;;;;3.3;3.2;;;;;;;1.4;100.0;102880;;;;
2023/04/03 04:53:00;;;;;;;3.3;3.2;;;;;;;1.4;100.0;102880;;;;
2023/04/03 04:54:00;;;;;;;3.3;3.2;;;;;;;1.5;100.0;102880;;;;
2023/04/03 04:55:00;;;;;;;3.3;3.2;;;;;;;1.5;100.0;102880;;;;
2023/04/03 04:56:00;;;;;;;3.3;3.2;;;;;;;1.3;100.0;102890;;;;
2023/04/03 04:57:00;;;;;;;3.3;3.2;;;;;;;1.3;100.0;102890;;;;
2023/04/03 04:58:00;;;;;;;2.9;2.8;;;;;;;1.3;100.0;102880;;;;
2023/04/03 04:59:00;;;;;;;2.9;2.8;;;;;;;1.3;100.0;102880;;;;
2023/04/03 05:00:00;;;;;;;2.9;2.8;;;;;;;1.1;100.0;102880;;;;
2023/04/03 05:01:01;;;;;;;2.9;2.8;;;;;;;1.1;100.0;102880;;;;
2023/04/03 05:02:00;;;;;;;2.9;2.8;;;;;;;1.2;100.0;102890;;;;
2023/04/03 05:03:00;;;;;;;2.9;2.8;;;;;;;1.2;100.0;102890;;;;
2023/04/03 05:04:00;;;;;;;2.9;2.8;;;;;;;1.2;100.0;102890;;;;
2023/04/03 05:05:03;;;;;;;2.9;2.8;;;;;;;1.2;100.0;102890;;;;
2023/04/03 05:06:00;;;;;;;2.9;2.8;;;;;;;1.2;100.0;102890;;;;
2023/04/03 05:07:00;;;;;;;2.9;2.8;;;;;;;1.2;100.0;102890;;;;
2023/04/03 05:08:00;;;;;;;2.9;2.8;;;;;;;1.1;100.0;102890;;;;
2023/04/03 05:09:01;;;;;;;2.9;2.8;;;;;;;1.1;100.0;102890;;;;
2023/04/03 05:10:00;;;;;;;2.9;2.8;;;;;;;1.1;100.0;102890;;;;
2023/04/03 05:11:00;;;;;;;2.9;2.8;;;;;;;1.1;100.0;102890;;;;
2023/04/03 05:12:01;;;;;;;2.9;2.8;;;;;;;1.0;100.0;102890;;;;
2023/04/03 05:13:00;;;;;;;2.9;2.8;;;;;;;1.0;100.0;102890;;;;
2023/04/03 05:14:00;;;;;;;2.9;2.8;;;;;;;1.1;100.0;102890;;;;
2023/04/03 05:15:00;;;;;;;2.9;2.8;;;;;;;1.1;100.0;102890;;;;
2023/04/03 05:16:00;;;;;;;2.9;2.8;;;;;;;1.2;100.0;102890;;;;
2023/04/03 05:17:00;;;;;;;2.9;2.8;;;;;;;1.2;100.0;102890;;;;
2023/04/03 05:18:00;;;;;;;3.4;3.3;;;;;;;1.1;100.0;102890;;;;
2023/04/03 05:19:00;;;;;;;3.4;3.3;;;;;;;1.1;100.0;102890;;;;
2023/04/03 05:20:00;;;;;;;3.4;3.3;;;;;;;1.0;100.0;102890;;;;
2023/04/03 05:21:00;;;;;;;3.4;3.3;;;;;;;1.0;100.0;102890;;;;
2023/04/03 05:22:00;;;;;;;3.4;3.3;;;;;;;1.1;100.0;102890;;;;
2023/04/03 05:23:00;;;;;;;3.4;3.3;;;;;;;1.1;100.0;102890;;;;
2023/04/03 05:24:02;;;;;;;3.4;3.3;;;;;;;1.2;100.0;102890;;;;
2023/04/03 05:25:00;;;;;;;3.4;3.3;;;;;;;1.2;100.0;102890;;;;
2023/04/03 05:26:00;;;;;;;3.4;3.3;;;;;;;1.2;100.0;102890;;;;
2023/04/03 05:27:00;;;;;;;3.4;3.3;;;;;;;1.2;100.0;102890;;;;
2023/04/03 05:28:00;;;;;;;3.4;3.3;;;;;;;1.2;100.0;102890;;;;
2023/04/03 05:29:00;;;;;;;3.4;3.3;;;;;;;1.2;100.0;102890;;;;
2023/04/03 05:30:00;;;;;;;3.4;3.3;;;;;;;1.2;100.0;102890;;;;
2023/04/03 05:31:00;;;;;;;3.4;3.3;;;;;;;1.2;100.0;102890;;;;
2023/04/03 05:32:00;;;;;;;3.4;3.3;;;;;;;1.1;100.0;102890;;;;
2023/04/03 05:33:00;;;;;;;3.4;3.3;;;;;;;1.1;100.0;102890;;;;
2023/04/03 05:34:00;;;;;;;3.4;3.3;;;;;;;1.2;100.0;102890;;;;
2023/04/03 05:35:01;;;;;;;3.4;3.3;;;;;;;1.2;100.0;102890;;;;
2023/04/03 05:36:03;;;;;;;3.4;3.3;;;;;;;1.2;100.0;102890;;;;
2023/04/03 05:37:02;;;;;;;3.3;3.2;;;;;;;1.2;100.0;102890;;;;
2023/04/03 05:38:00;;;;;;;3.3;3.2;;;;;;;1.2;100.0;102890;;;;
2023/04/03 05:39:00;;;;;;;3.3;3.2;;;;;;;1.2;100.0;102890;;;;
2023/04/03 05:40:00;;;;;;;3.3;3.2;;;;;;;1.1;100.0;102890;;;;
2023/04/03 05:41:00;;;;;;;3.3;3.2;;;;;;;1.1;100.0;102890;;;;
2023/04/03 05:42:00;;;;;;;3.3;3.2;;;;;;;1.1;100.0;102900;;;;
2023/04/03 05:43:00;;;;;;;3.3;3.2;;;;;;;1.1;100.0;102900;;;;
2023/04/03 05:44:00;;;;;;;3.3;3.2;;;;;;;1.2;100.0;102900;;;;
2023/04/03 05:45:00;;;;;;;3.3;3.2;;;;;;;1.2;100.0;102900;;;;
2023/04/03 05:46:00;;;;;;;3.3;3.2;;;;;;;1.2;100.0;102900;;;;
2023/04/03 05:47:00;;;;;;;3.3;3.2;;;;;;;1.2;100.0;102900;;;;
2023/04/03 05:48:00;;;;;;;3.3;3.2;;;;;;;1.3;100.0;102900;;;;
2023/04/03 05:49:00;;;;;;;3.3;3.2;;;;;;;1.3;100.0;102900;;;;
2023/04/03 05:50:00;;;;;;;3.3;3.2;;;;;;;1.2;100.0;102900;;;;
2023/04/03 05:51:00;;;;;;;3.3;3.2;;;;;;;1.2;100.0;102900;;;;
2023/04/03 05:52:01;;;;;;;3.3;3.2;;;;;;;1.2;100.0;102910;;;;
2023/04/03 05:53:02;;;;;;;3.3;3.2;;;;;;;1.2;100.0;102910;;;;
2023/04/03 05:54:10;;;;;;;3.3;3.2;;;;;;;1.3;100.0;102910;;;;
2023/04/03 05:55:00;;;;;;;3.3;3.2;;;;;;;1.3;100.0;102910;;;;
2023/04/03 05:56:00;;;;;;;3.3;3.2;;;;;;;1.2;100.0;102920;;;;
2023/04/03 05:57:00;;;;;;;3.2;3.1;;;;;;;1.2;100.0;102920;;;;
2023/04/03 05:58:00;;;;;;;3.2;3.1;;;;;;;1.2;100.0;102920;;;;
2023/04/03 05:59:00;;;;;;;3.2;3.1;;;;;;;1.2;100.0;102920;;;;
2023/04/03 06:00:00;;;;;;;3.2;3.1;;;;;;;1.3;100.0;102920;;;;
2023/04/03 06:01:01;;;;;;;3.2;3.1;;;;;;;1.3;100.0;102920;;;;
2023/04/03 06:02:01;;;;;;;3.2;3.1;;;;;;;1.3;100.0;102920;;;;
2023/04/03 06:03:01;;;;;;;3.2;3.1;;;;;;;1.3;100.0;102920;;;;
2023/04/03 06:04:01;;;;;;;3.2;3.1;;;;;;;1.4;100.0;102920;;;;
2023/04/03 06:05:00;;;;;;;3.2;3.1;;;;;;;1.4;100.0;102920;;;;
2023/04/03 06:06:03;;;;;;;3.2;3.1;;;;;;;1.4;100.0;102920;;;;
2023/04/03 06:07:00;;;;;;;3.2;3.1;;;;;;;1.4;100.0;102920;;;;
2023/04/03 06:08:00;;;;;;;3.2;3.1;;;;;;;1.4;100.0;102920;;;;
2023/04/03 06:09:03;;;;;;;3.2;3.1;;;;;;;1.4;100.0;102920;;;;
2023/04/03 06:10:01;;;;;;;3.2;3.1;;;;;;;1.4;100.0;102920;;;;
2023/04/03 06:11:01;;;;;;;3.2;3.1;;;;;;;1.4;100.0;102920;;;;
2023/04/03 06:12:01;;;;;;;3.2;3.1;;;;;;;1.5;100.0;102920;;;;
2023/04/03 06:13:00;;;;;;;3.2;3.1;;;;;;;1.5;100.0;102920;;;;
2023/04/03 06:14:00;;;;;;;3.2;3.1;;;;;;;1.5;100.0;102920;;;;
2023/04/03 06:15:01;;;;;;;3.2;3.1;;;;;;;1.5;100.0;102920;;;;
2023/04/03 06:16:00;;;;;;;3.2;3.1;;;;;;;1.4;100.0;102920;;;;
2023/04/03 06:17:01;;;;;;;2.8;2.7;;;;;;;1.4;100.0;102920;;;;
2023/04/03 06:18:00;;;;;;;2.8;2.7;;;;;;;1.5;100.0;102920;;;;
2023/04/03 06:19:01;;;;;;;2.8;2.7;;;;;;;1.5;100.0;102920;;;;
2023/04/03 06:20:00;;;;;;;2.8;2.7;;;;;;;1.5;100.0;102920;;;;
2023/04/03 06:21:02;;;;;;;2.8;2.7;;;;;;;1.5;100.0;102920;;;;
2023/04/03 06:22:00;;;;;;;2.8;2.7;;;;;;;1.5;100.0;102930;;;;
2023/04/03 06:23:00;;;;;;;2.8;2.7;;;;;;;1.5;100.0;102930;;;;
2023/04/03 06:24:00;;;;;;;2.8;2.7;;;;;;;1.5;100.0;102920;;;;
2023/04/03 06:25:01;;;;;;;2.8;2.7;;;;;;;1.5;100.0;102920;;;;
2023/04/03 06:26:00;;;;;;;2.8;2.7;;;;;;;1.6;100.0;102920;;;;
2023/04/03 06:27:00;;;;;;;2.8;2.7;;;;;;;1.6;100.0;102920;;;;
2023/04/03 06:28:00;;;;;;;2.8;2.7;;;;;;;1.7;100.0;102930;;;;
2023/04/03 06:29:01;;;;;;;2.8;2.7;;;;;;;1.7;100.0;102930;;;;